createdAt,value
2018-12-18T00:00:36.372Z,24.52
2018-12-18T00:03:11.383Z,26.35
2018-12-18T00:05:39.816Z,27.70
2018-12-18T00:08:08.163Z,26.55
2018-12-18T00:10:41.761Z,24.07
2018-12-18T00:13:10.123Z,30.00
2018-12-18T00:15:38.555Z,22.93
2018-12-18T00:18:06.962Z,24.18
2018-12-18T00:20:35.312Z,24.12
2018-12-18T00:23:03.634Z,22.20
2018-12-18T00:25:32.168Z,28.25
2018-12-18T00:28:01.214Z,25.30
2018-12-18T00:30:29.550Z,22.50
2018-12-18T00:32:57.913Z,21.35
2018-12-18T00:35:26.329Z,26.25
2018-12-18T00:37:54.760Z,23.35
2018-12-18T00:40:23.288Z,24.92
2018-12-18T00:42:51.625Z,22.27
2018-12-18T00:45:20.043Z,25.90
2018-12-18T00:47:48.604Z,21.17
2018-12-18T00:50:17.072Z,24.90
2018-12-18T00:52:45.468Z,24.77
2018-12-18T00:55:13.816Z,26.73
2018-12-18T00:57:42.309Z,24.90
2018-12-18T01:00:10.936Z,25.50
2018-12-18T01:02:39.333Z,26.33
2018-12-18T01:05:07.839Z,28.73
2018-12-18T01:07:36.273Z,31.20
2018-12-18T01:10:05.489Z,29.60
2018-12-18T01:12:33.857Z,26.23
2018-12-18T01:15:02.241Z,31.07
2018-12-18T01:17:30.584Z,28.83
2018-12-18T01:19:59.014Z,27.32
2018-12-18T01:22:27.338Z,29.80
2018-12-18T01:24:56.186Z,25.27
2018-12-18T01:27:24.554Z,24.50
2018-12-18T01:29:53.030Z,24.20
2018-12-18T01:32:21.391Z,30.60
2018-12-18T01:34:49.739Z,31.60
2018-12-18T01:37:18.084Z,22.90
2018-12-18T01:39:46.871Z,25.95
2018-12-18T01:42:15.199Z,30.70
2018-12-18T01:44:44.179Z,28.10
2018-12-18T01:47:12.524Z,25.43
2018-12-18T01:49:45.009Z,21.62
2018-12-18T01:52:13.785Z,21.60
2018-12-18T01:54:42.171Z,25.68
2018-12-18T01:57:10.520Z,21.62
2018-12-18T01:59:38.873Z,18.77
2018-12-18T02:02:07.225Z,23.32
2018-12-18T02:04:35.682Z,20.05
2018-12-18T02:07:04.135Z,19.77
2018-12-18T02:09:33.763Z,24.47
2018-12-18T02:12:02.181Z,21.00
2018-12-18T02:14:30.537Z,24.32
2018-12-18T02:16:58.890Z,23.42
2018-12-18T02:19:27.285Z,25.00
2018-12-18T02:21:55.656Z,22.32
2018-12-18T02:24:23.998Z,23.25
2018-12-18T02:26:52.360Z,19.37
2018-12-18T02:29:21.331Z,17.45
2018-12-18T02:31:49.698Z,28.67
2018-12-18T02:34:19.369Z,26.45
2018-12-18T02:36:47.815Z,25.92
2018-12-18T02:39:16.195Z,22.15
2018-12-18T02:41:44.630Z,22.62
2018-12-18T02:44:13.006Z,24.55
2018-12-18T02:46:41.365Z,23.02
2018-12-18T02:49:13.933Z,23.10
2018-12-18T02:51:42.890Z,22.25
2018-12-18T02:54:11.376Z,26.65
2018-12-18T02:56:39.911Z,25.70
2018-12-18T02:59:08.296Z,27.15
2018-12-18T03:01:36.785Z,20.85
2018-12-18T03:04:05.192Z,26.25
2018-12-18T03:06:33.632Z,28.15
2018-12-18T03:09:01.991Z,25.80
2018-12-18T03:11:30.325Z,30.48
2018-12-18T03:13:59.263Z,24.25
2018-12-18T03:16:27.601Z,27.75
2018-12-18T03:18:56.058Z,27.05
2018-12-18T03:21:24.412Z,33.08
2018-12-18T03:23:52.758Z,27.10
2018-12-18T03:26:21.771Z,33.25
2018-12-18T03:28:50.157Z,27.93
2018-12-18T03:31:18.691Z,28.15
2018-12-18T03:33:47.204Z,30.55
2018-12-18T03:36:15.585Z,38.90
2018-12-18T03:38:44.077Z,26.27
2018-12-18T03:41:12.524Z,27.90
2018-12-18T03:43:41.021Z,30.57
2018-12-18T03:46:09.356Z,29.37
2018-12-18T03:48:37.745Z,32.98
2018-12-18T03:51:06.133Z,31.97
2018-12-18T03:53:34.562Z,32.85
2018-12-18T03:56:07.017Z,35.30
2018-12-18T03:58:35.386Z,34.20
2018-12-18T04:01:03.849Z,33.30
2018-12-18T04:03:32.279Z,35.10
2018-12-18T04:06:00.619Z,34.43
2018-12-18T04:08:29.072Z,40.70
2018-12-18T04:10:57.677Z,32.00
2018-12-18T04:13:26.400Z,36.80
2018-12-18T04:15:54.834Z,35.30
2018-12-18T04:18:23.448Z,37.28
2018-12-18T04:20:51.827Z,37.08
2018-12-18T04:23:20.167Z,36.35
2018-12-18T04:25:48.515Z,35.13
2018-12-18T04:28:17.016Z,34.03
2018-12-18T04:30:45.493Z,35.28
2018-12-18T04:33:13.849Z,35.52
2018-12-18T04:35:42.488Z,42.10
2018-12-18T04:38:10.897Z,38.17
2018-12-18T04:40:39.275Z,37.70
2018-12-18T04:43:07.727Z,39.67
2018-12-18T04:45:36.142Z,36.90
2018-12-18T04:48:04.494Z,42.08
2018-12-18T04:50:32.894Z,35.40
2018-12-18T04:53:02.003Z,38.67
2018-12-18T04:55:30.467Z,36.95
2018-12-18T04:57:58.888Z,35.25
2018-12-18T05:00:27.240Z,44.53
2018-12-18T05:02:55.607Z,38.85
2018-12-18T05:05:24.023Z,43.50
2018-12-18T05:07:52.416Z,41.35
2018-12-18T05:10:20.775Z,37.90
2018-12-18T05:12:49.155Z,35.25
2018-12-18T05:15:18.093Z,36.48
2018-12-18T05:17:46.541Z,41.18
2018-12-18T05:20:14.899Z,39.83
2018-12-18T05:22:43.298Z,39.70
2018-12-18T05:25:11.999Z,37.95
2018-12-18T05:27:40.435Z,36.42
2018-12-18T05:30:08.787Z,34.58
2018-12-18T05:32:37.449Z,32.25
2018-12-18T05:35:06.303Z,34.27
2018-12-18T05:37:34.665Z,34.33
2018-12-18T05:40:04.067Z,33.70
2018-12-18T05:42:32.559Z,31.95
2018-12-18T05:45:00.982Z,33.85
2018-12-18T05:47:30.305Z,35.68
2018-12-18T05:49:58.669Z,34.13
2018-12-18T05:52:27.109Z,35.50
2018-12-18T05:54:55.463Z,32.17
2018-12-18T05:57:24.780Z,30.02
2018-12-18T05:59:53.269Z,27.55
2018-12-18T06:02:22.256Z,31.05
2018-12-18T06:04:50.658Z,37.28
2018-12-18T06:07:19.014Z,32.45
2018-12-18T06:09:47.435Z,30.70
2018-12-18T06:12:15.808Z,21.57
2018-12-18T06:14:44.476Z,28.25
2018-12-18T06:17:12.885Z,26.15
2018-12-18T06:19:41.291Z,26.73
2018-12-18T06:22:09.680Z,35.65
2018-12-18T06:24:38.102Z,36.95
2018-12-18T06:27:06.456Z,34.55
2018-12-18T06:29:34.826Z,35.08
2018-12-18T06:32:03.338Z,31.37
2018-12-18T06:34:31.746Z,28.80
2018-12-18T06:37:00.145Z,28.95
2018-12-18T06:39:28.567Z,25.60
2018-12-18T06:41:56.896Z,28.55
2018-12-18T06:44:25.646Z,27.60
2018-12-18T06:46:54.795Z,28.15
2018-12-18T06:49:23.145Z,24.90
2018-12-18T06:51:51.616Z,23.22
2018-12-18T06:54:20.019Z,25.88
2018-12-18T06:56:48.422Z,27.30
2018-12-18T06:59:16.884Z,19.50
2018-12-18T07:01:45.303Z,22.62
2018-12-18T07:04:13.754Z,20.62
2018-12-18T07:06:42.153Z,16.45
2018-12-18T07:09:10.616Z,19.45
2018-12-18T07:11:39.775Z,17.80
2018-12-18T07:14:08.174Z,18.50
2018-12-18T07:16:36.592Z,21.65
2018-12-18T07:19:04.923Z,17.02
2018-12-18T07:21:33.311Z,18.67
2018-12-18T07:24:01.703Z,15.72
2018-12-18T07:26:34.456Z,24.25
2018-12-18T07:29:02.863Z,24.35
2018-12-18T07:31:31.365Z,24.30
2018-12-18T07:33:59.794Z,22.32
2018-12-18T07:36:28.409Z,21.85
2018-12-18T07:38:56.785Z,23.87
2018-12-18T07:41:25.179Z,30.17
2018-12-18T07:43:53.618Z,21.70
2018-12-18T07:46:21.985Z,23.12
2018-12-18T07:48:50.338Z,22.80
2018-12-18T07:51:18.775Z,22.58
2018-12-18T07:53:47.264Z,23.92
2018-12-18T07:56:15.617Z,23.47
2018-12-18T07:58:44.074Z,24.18
2018-12-18T08:01:12.433Z,20.68
2018-12-18T08:03:40.805Z,15.78
2018-12-18T08:06:09.177Z,21.07
2018-12-18T08:08:37.847Z,20.05
2018-12-18T08:11:06.396Z,20.05
2018-12-18T08:13:34.843Z,23.30
2018-12-18T08:16:03.220Z,26.73
2018-12-18T08:18:31.703Z,21.10
2018-12-18T08:21:00.054Z,18.55
2018-12-18T08:23:28.409Z,25.88
2018-12-18T08:25:56.868Z,22.02
2018-12-18T08:28:25.334Z,16.48
2018-12-18T08:30:53.708Z,19.87
2018-12-18T08:33:22.143Z,21.40
2018-12-18T08:35:50.529Z,24.47
2018-12-18T08:38:18.881Z,16.77
2018-12-18T08:40:47.305Z,20.17
2018-12-18T08:43:15.695Z,17.98
2018-12-18T08:45:44.365Z,19.00
2018-12-18T08:48:12.780Z,21.45
2018-12-18T08:50:41.108Z,18.85
2018-12-18T08:53:09.481Z,17.37
2018-12-18T08:55:37.927Z,16.17
2018-12-18T08:58:06.355Z,14.28
2018-12-18T09:00:34.812Z,18.77
2018-12-18T09:03:03.273Z,15.50
2018-12-18T09:05:32.664Z,19.35
2018-12-18T09:08:01.112Z,16.27
2018-12-18T09:10:29.980Z,15.90
2018-12-18T09:12:58.301Z,21.05
2018-12-18T09:16:00.508Z,20.95
2018-12-18T09:18:28.883Z,18.32
2018-12-18T09:20:57.372Z,16.48
2018-12-18T09:23:25.781Z,17.05
2018-12-18T09:25:54.193Z,19.90
2018-12-18T09:28:22.765Z,17.55
2018-12-18T09:30:51.165Z,17.23
2018-12-18T09:33:19.504Z,19.37
2018-12-18T09:35:49.768Z,22.42
2018-12-18T09:38:23.603Z,11.95
2018-12-18T09:40:57.214Z,15.60
2018-12-18T09:43:30.738Z,15.38
2018-12-18T09:45:59.054Z,16.37
2018-12-18T09:48:27.437Z,14.45
2018-12-18T09:50:55.923Z,14.75
2018-12-18T09:53:24.309Z,14.18
2018-12-18T09:55:53.036Z,14.83
2018-12-18T09:58:21.436Z,11.55
2018-12-18T10:00:50.130Z,11.85
2018-12-18T10:03:18.532Z,13.70
2018-12-18T10:05:46.962Z,10.40
2018-12-18T10:08:15.395Z,13.30
2018-12-18T10:10:43.824Z,14.95
2018-12-18T10:13:12.329Z,10.72
2018-12-18T10:15:40.747Z,14.95
2018-12-18T10:18:09.130Z,13.18
2018-12-18T10:20:38.149Z,15.85
2018-12-18T10:23:06.515Z,9.60
2018-12-18T10:25:34.905Z,9.48
2018-12-18T10:28:03.354Z,8.85
2018-12-18T10:30:31.732Z,9.50
2018-12-18T10:33:00.245Z,11.85
2018-12-18T10:35:28.759Z,8.45
2018-12-18T10:37:57.157Z,9.30
2018-12-18T10:40:25.589Z,11.78
2018-12-18T10:42:53.986Z,9.25
2018-12-18T10:45:26.566Z,8.08
2018-12-18T10:47:54.903Z,10.65
2018-12-18T10:50:23.461Z,7.17
2018-12-18T10:52:51.838Z,8.65
2018-12-18T10:55:20.224Z,7.25
2018-12-18T10:57:48.838Z,9.65
2018-12-18T11:00:22.631Z,12.70
2018-12-18T11:02:50.961Z,14.95
2018-12-18T11:05:19.370Z,11.08
2018-12-18T11:07:47.775Z,11.00
2018-12-18T11:10:16.184Z,10.58
2018-12-18T11:12:48.845Z,15.35
2018-12-18T11:15:17.240Z,11.93
2018-12-18T11:17:45.581Z,13.35
2018-12-18T11:20:13.947Z,9.50
2018-12-18T11:22:42.328Z,11.12
2018-12-18T11:25:10.686Z,13.60
2018-12-18T11:27:39.060Z,10.45
2018-12-18T11:30:08.183Z,19.17
2018-12-18T11:32:36.562Z,11.03
2018-12-18T11:35:05.348Z,12.37
2018-12-18T11:37:33.680Z,9.50
2018-12-18T11:40:02.032Z,13.48
2018-12-18T11:42:30.521Z,14.68
2018-12-18T11:44:58.886Z,13.68
2018-12-18T11:47:27.898Z,12.47
2018-12-18T11:49:56.248Z,13.62
2018-12-18T11:52:24.613Z,10.95
2018-12-18T11:54:53.013Z,10.28
2018-12-18T11:57:21.483Z,8.53
2018-12-18T11:59:49.841Z,9.90
2018-12-18T12:02:18.225Z,8.70
2018-12-18T12:04:46.579Z,13.18
2018-12-18T12:07:14.954Z,6.67
2018-12-18T12:09:43.343Z,7.22
2018-12-18T12:12:11.751Z,7.17
2018-12-18T12:14:40.920Z,7.62
2018-12-18T12:17:09.312Z,7.87
2018-12-18T12:19:37.684Z,12.07
2018-12-18T12:22:06.565Z,6.37
2018-12-18T12:24:34.924Z,7.37
2018-12-18T12:27:08.746Z,8.60
2018-12-18T12:29:37.064Z,8.93
2018-12-18T12:32:05.488Z,8.15
2018-12-18T12:34:33.994Z,5.35
2018-12-18T12:37:02.363Z,9.60
2018-12-18T12:39:30.808Z,11.18
2018-12-18T12:41:59.199Z,10.98
2018-12-18T12:44:27.609Z,6.12
2018-12-18T12:46:55.975Z,8.70
2018-12-18T12:49:28.664Z,10.72
2018-12-18T12:51:56.972Z,4.90
2018-12-18T12:54:25.359Z,8.95
2018-12-18T12:56:53.973Z,10.85
2018-12-18T12:59:22.365Z,8.60
2018-12-18T13:01:50.705Z,8.43
2018-12-18T13:04:19.170Z,5.85
2018-12-18T13:06:47.662Z,8.93
2018-12-18T13:09:16.044Z,6.50
2018-12-18T13:11:44.577Z,6.75
2018-12-18T13:14:13.028Z,6.10
2018-12-18T13:16:41.352Z,8.95
2018-12-18T13:19:09.697Z,6.47
2018-12-18T13:21:38.150Z,9.78
2018-12-18T13:24:06.742Z,11.68
2018-12-18T13:26:35.220Z,7.47
2018-12-18T13:29:03.708Z,8.83
2018-12-18T13:31:32.165Z,8.68
2018-12-18T13:34:01.983Z,8.78
2018-12-18T13:36:30.580Z,8.55
2018-12-18T13:38:59.024Z,6.65
2018-12-18T13:41:27.441Z,8.45
2018-12-18T13:43:55.780Z,6.83
2018-12-18T13:46:24.183Z,10.23
2018-12-18T13:48:52.516Z,5.92
2018-12-18T13:51:20.907Z,13.62
2018-12-18T13:53:49.283Z,10.72
2018-12-18T13:56:17.667Z,10.30
2018-12-18T13:58:46.062Z,10.30
2018-12-18T14:01:14.430Z,7.67
2018-12-18T14:03:43.508Z,6.03
2018-12-18T14:06:11.907Z,9.70
2018-12-18T14:08:40.289Z,8.45
2018-12-18T14:11:08.648Z,7.87
2018-12-18T14:13:36.992Z,8.65
2018-12-18T14:16:05.532Z,5.90
2018-12-18T14:18:34.012Z,10.35
2018-12-18T14:21:02.461Z,4.97
2018-12-18T14:23:30.805Z,7.78
2018-12-18T14:25:59.189Z,7.65
2018-12-18T14:28:27.625Z,5.95
2018-12-18T14:30:55.992Z,7.33
2018-12-18T14:33:24.336Z,4.80
2018-12-18T14:35:52.763Z,5.42
2018-12-18T14:38:21.180Z,5.60
2018-12-18T14:40:49.652Z,9.15
2018-12-18T14:43:18.004Z,7.28
2018-12-18T14:45:47.036Z,5.10
2018-12-18T14:48:15.396Z,6.22
2018-12-18T14:50:43.753Z,6.42
2018-12-18T14:53:12.084Z,7.58
2018-12-18T14:55:40.544Z,7.55
2018-12-18T14:58:08.924Z,8.15
2018-12-18T15:00:37.534Z,4.62
2018-12-18T15:03:05.892Z,8.00
2018-12-18T15:05:34.321Z,6.60
2018-12-18T15:08:02.691Z,11.18
2018-12-18T15:10:31.065Z,7.95
2018-12-18T15:12:59.422Z,5.95
2018-12-18T15:15:27.797Z,9.93
2018-12-18T15:17:56.118Z,7.53
2018-12-18T15:20:24.607Z,10.05
2018-12-18T15:22:53.000Z,5.37
2018-12-18T15:25:21.403Z,8.93
2018-12-18T15:27:49.917Z,4.87
2018-12-18T15:30:18.249Z,10.78
2018-12-18T15:32:46.716Z,7.95
2018-12-18T15:35:15.056Z,9.28
2018-12-18T15:37:43.532Z,9.38
2018-12-18T15:40:11.994Z,6.30
2018-12-18T15:42:40.392Z,7.67
2018-12-18T15:45:08.808Z,6.65
2018-12-18T15:47:37.199Z,7.20
2018-12-18T15:50:08.192Z,8.85
2018-12-18T15:52:37.933Z,9.55
2018-12-18T15:55:06.456Z,10.08
2018-12-18T15:57:34.910Z,7.45
2018-12-18T16:00:03.303Z,8.13
2018-12-18T16:02:31.688Z,10.65
2018-12-18T16:05:00.939Z,8.73
2018-12-18T16:07:30.448Z,7.15
2018-12-18T16:09:58.796Z,7.47
2018-12-18T16:12:27.173Z,6.83
2018-12-18T16:14:55.513Z,7.37
2018-12-18T16:17:24.501Z,7.40
2018-12-18T16:19:53.647Z,6.78
2018-12-18T16:22:22.031Z,7.92
2018-12-18T16:24:50.363Z,7.78
2018-12-18T16:27:18.805Z,6.22
2018-12-18T16:29:47.368Z,11.48
2018-12-18T16:32:15.794Z,12.53
2018-12-18T16:34:44.123Z,8.23
2018-12-18T16:37:12.485Z,7.92
2018-12-18T16:39:40.930Z,7.87
2018-12-18T16:42:09.517Z,9.63
2018-12-18T16:44:37.877Z,12.60
2018-12-18T16:47:06.253Z,8.13
2018-12-18T16:49:34.751Z,7.30
2018-12-18T16:52:03.218Z,7.00
2018-12-18T16:54:31.991Z,7.65
2018-12-18T16:57:00.483Z,7.58
2018-12-18T16:59:28.843Z,14.13
2018-12-18T17:01:57.299Z,9.60
2018-12-18T17:04:25.680Z,6.85
2018-12-18T17:06:54.183Z,9.08
2018-12-18T17:09:22.563Z,9.48
2018-12-18T17:11:50.872Z,10.80
2018-12-18T17:14:19.226Z,9.18
2018-12-18T17:16:47.691Z,10.13
2018-12-18T17:19:16.259Z,13.05
2018-12-18T17:21:44.679Z,12.30
2018-12-18T17:24:13.078Z,9.23
2018-12-18T17:26:41.415Z,9.05
2018-12-18T17:29:09.786Z,8.70
2018-12-18T17:31:38.445Z,14.87
2018-12-18T17:34:06.847Z,10.40
2018-12-18T17:36:35.173Z,10.38
2018-12-18T17:39:05.295Z,9.05
2018-12-18T17:41:33.606Z,15.55
2018-12-18T17:44:02.187Z,11.95
2018-12-18T17:46:30.664Z,9.30
2018-12-18T17:48:59.128Z,13.65
2018-12-18T17:51:27.539Z,7.58
2018-12-18T17:53:55.905Z,8.23
2018-12-18T17:56:24.284Z,7.20
2018-12-18T17:58:52.702Z,8.08
2018-12-18T18:01:21.316Z,8.63
2018-12-18T18:03:49.739Z,9.43
2018-12-18T18:06:18.152Z,10.65
2018-12-18T18:08:46.556Z,9.40
2018-12-18T18:11:14.931Z,7.67
2018-12-18T18:13:43.279Z,6.17
2018-12-18T18:16:11.631Z,12.78
2018-12-18T18:18:40.103Z,9.20
2018-12-18T18:21:08.481Z,11.68
2018-12-18T18:23:36.868Z,8.38
2018-12-18T18:26:06.105Z,9.43
2018-12-18T18:28:34.438Z,8.18
2018-12-18T18:31:02.820Z,7.12
2018-12-18T18:33:31.295Z,6.70
2018-12-18T18:35:59.645Z,9.03
2018-12-18T18:38:28.067Z,7.80
2018-12-18T18:40:56.607Z,16.57
2018-12-18T18:43:25.003Z,9.75
2018-12-18T18:45:53.465Z,9.65
2018-12-18T18:48:21.825Z,10.23
2018-12-18T18:50:50.168Z,9.95
2018-12-18T18:53:18.543Z,9.30
2018-12-18T18:55:47.019Z,11.55
2018-12-18T18:58:15.454Z,7.78
2018-12-18T19:00:43.823Z,8.68
2018-12-18T19:03:12.235Z,7.95
2018-12-18T19:05:40.627Z,8.03
2018-12-18T19:08:09.017Z,7.35
2018-12-18T19:10:37.420Z,10.10
2018-12-18T19:13:05.823Z,8.70
2018-12-18T19:15:34.328Z,9.35
2018-12-18T19:18:02.816Z,9.05
2018-12-18T19:20:31.326Z,9.90
2018-12-18T19:22:59.801Z,10.20
2018-12-18T19:25:28.241Z,7.30
2018-12-18T19:27:56.600Z,8.65
2018-12-18T19:30:25.128Z,9.68
2018-12-18T19:32:53.690Z,10.20
2018-12-18T19:35:22.607Z,10.38
2018-12-18T19:37:51.637Z,6.37
2018-12-18T19:40:20.284Z,7.55
2018-12-18T19:42:48.773Z,7.62
2018-12-18T19:45:17.258Z,9.13
2018-12-18T19:47:45.731Z,6.67
2018-12-18T19:50:14.835Z,8.13
2018-12-18T19:52:43.211Z,9.08
2018-12-18T19:55:11.965Z,9.28
2018-12-18T19:57:40.515Z,11.63
2018-12-18T20:00:09.573Z,12.18
2018-12-18T20:02:37.999Z,9.60
2018-12-18T20:05:06.867Z,7.83
2018-12-18T20:07:35.299Z,11.22
2018-12-18T20:10:04.256Z,9.70
2018-12-18T20:12:32.681Z,11.35
2018-12-18T20:15:01.116Z,10.43
2018-12-18T20:17:29.496Z,11.88
2018-12-18T20:19:58.133Z,10.88
2018-12-18T20:22:26.577Z,11.65
2018-12-18T20:24:54.958Z,12.55
2018-12-18T20:27:23.448Z,12.88
2018-12-18T20:29:52.203Z,12.13
2018-12-18T20:32:20.639Z,12.20
2018-12-18T20:34:49.052Z,12.88
2018-12-18T20:37:18.425Z,11.28
2018-12-18T20:39:46.927Z,15.93
2018-12-18T20:42:15.531Z,13.53
2018-12-18T20:44:44.077Z,13.70
2018-12-18T20:47:13.029Z,18.20
2018-12-18T20:49:41.481Z,15.03
2018-12-18T20:52:10.040Z,17.60
2018-12-18T20:54:42.290Z,17.73
2018-12-18T20:57:10.777Z,19.87
2018-12-18T20:59:39.485Z,17.90
2018-12-18T21:02:08.778Z,17.95
2018-12-18T21:04:38.019Z,19.42
2018-12-18T21:07:06.729Z,17.32
2018-12-18T21:09:35.211Z,19.30
2018-12-18T21:12:03.651Z,21.15
2018-12-18T21:14:32.190Z,20.27
2018-12-18T21:17:00.939Z,20.95
2018-12-18T21:19:29.408Z,20.00
2018-12-18T21:21:57.821Z,22.42
2018-12-18T21:24:26.200Z,19.95
2018-12-18T21:26:54.792Z,22.22
2018-12-18T21:29:23.269Z,22.98
2018-12-18T21:31:51.712Z,17.40
2018-12-18T21:34:20.139Z,20.95
2018-12-18T21:36:48.479Z,29.12
2018-12-18T21:39:16.831Z,23.40
2018-12-18T21:41:45.203Z,26.42
2018-12-18T21:44:13.561Z,26.60
2018-12-18T21:46:42.044Z,25.62
2018-12-18T21:49:10.398Z,21.85
2018-12-18T21:51:38.754Z,29.48
2018-12-18T21:54:07.127Z,25.77
2018-12-18T21:56:35.496Z,26.68
2018-12-18T21:59:03.821Z,29.02
2018-12-18T22:01:32.375Z,27.77
2018-12-18T22:04:00.897Z,26.48
2018-12-18T22:06:29.285Z,28.95
2018-12-18T22:08:57.684Z,27.48
2018-12-18T22:11:26.492Z,30.50
2018-12-18T22:13:55.143Z,28.47
2018-12-18T22:16:23.830Z,27.42
2018-12-18T22:18:52.292Z,38.38
2018-12-18T22:21:20.662Z,30.85
2018-12-18T22:23:49.080Z,28.57
2018-12-18T22:26:17.798Z,26.82
2018-12-18T22:28:46.275Z,25.60
2018-12-18T22:31:14.656Z,27.32
2018-12-18T22:33:43.060Z,27.73
2018-12-18T22:36:11.425Z,24.85
2018-12-18T22:38:43.628Z,26.23
2018-12-18T22:41:10.193Z,27.02
2018-12-18T22:43:38.587Z,30.50
2018-12-18T22:46:06.940Z,24.37
2018-12-18T22:48:35.296Z,24.55
2018-12-18T22:51:03.697Z,29.00
2018-12-18T22:53:32.052Z,30.40
2018-12-18T22:56:00.456Z,30.05
2018-12-18T22:58:28.871Z,24.85
2018-12-18T23:01:04.977Z,25.45
2018-12-18T23:03:33.344Z,26.48
2018-12-18T23:06:01.753Z,30.85
2018-12-18T23:08:30.784Z,28.70
2018-12-18T23:10:59.641Z,25.55
2018-12-18T23:13:28.039Z,31.30
2018-12-18T23:15:56.435Z,27.17
2018-12-18T23:18:24.923Z,26.27
2018-12-18T23:20:53.279Z,27.48
2018-12-18T23:23:21.652Z,26.97
2018-12-18T23:25:50.065Z,26.73
2018-12-18T23:28:18.413Z,32.13
2018-12-18T23:30:46.819Z,27.98
2018-12-18T23:33:15.172Z,29.48
2018-12-18T23:35:43.565Z,28.40
2018-12-18T23:38:11.941Z,33.58
2018-12-18T23:40:40.342Z,25.37
2018-12-18T23:43:08.771Z,28.17
2018-12-18T23:45:37.165Z,23.67
2018-12-18T23:48:05.650Z,26.57
2018-12-18T23:50:38.625Z,26.05
2018-12-18T23:53:06.986Z,23.87
2018-12-18T23:55:36.292Z,26.68
2018-12-18T23:58:04.628Z,25.15
